createdAt,value
2023-02-08T00:01:34.936Z,5.60
2023-02-08T00:04:03.169Z,5.50
2023-02-08T00:06:31.669Z,5.07
2023-02-08T00:09:01.265Z,6.23
2023-02-08T00:11:29.404Z,5.53
2023-02-08T00:13:57.525Z,5.33
2023-02-08T00:16:27.141Z,5.50
2023-02-08T00:18:56.148Z,4.77
2023-02-08T00:21:24.178Z,5.30
2023-02-08T00:23:52.485Z,5.87
2023-02-08T00:26:20.523Z,4.83
2023-02-08T00:28:48.699Z,6.10
2023-02-08T00:31:19.071Z,4.80
2023-02-08T00:33:48.784Z,4.93
2023-02-08T00:36:16.885Z,5.20
2023-02-08T00:38:44.895Z,5.50
2023-02-08T00:41:13.118Z,5.07
2023-02-08T00:43:41.205Z,5.00
2023-02-08T00:46:10.824Z,5.37
2023-02-08T00:48:38.886Z,5.30
2023-02-08T00:51:10.736Z,5.00
2023-02-08T00:53:41.236Z,5.47
2023-02-08T00:56:10.575Z,5.57
2023-02-08T00:58:39.384Z,5.07
2023-02-08T01:01:08.715Z,4.93
2023-02-08T01:03:40.727Z,5.40
2023-02-08T01:06:13.944Z,5.83
2023-02-08T01:08:41.980Z,5.80
2023-02-08T01:11:13.040Z,5.67
2023-02-08T01:13:42.073Z,4.33
2023-02-08T01:16:13.705Z,5.07
2023-02-08T01:18:44.241Z,5.27
2023-02-08T01:21:18.086Z,4.20
2023-02-08T01:23:47.009Z,5.10
2023-02-08T01:26:17.200Z,4.90
2023-02-08T01:28:46.877Z,5.60
2023-02-08T01:31:20.498Z,4.83
2023-02-08T01:33:49.365Z,5.73
2023-02-08T01:36:19.002Z,4.73
2023-02-08T01:38:49.056Z,4.87
2023-02-08T01:41:20.652Z,5.87
2023-02-08T01:44:09.165Z,5.83
2023-02-08T01:46:39.532Z,5.03
2023-02-08T01:49:12.632Z,5.63
2023-02-08T01:51:46.642Z,5.13
2023-02-08T01:54:17.572Z,5.50
2023-02-08T01:56:48.158Z,4.93
2023-02-08T01:59:22.280Z,5.27
2023-02-08T02:01:53.511Z,5.13
2023-02-08T02:04:22.447Z,5.17
2023-02-08T02:06:57.896Z,6.00
2023-02-08T02:09:32.478Z,5.57
2023-02-08T02:12:02.034Z,5.27
2023-02-08T02:14:30.824Z,5.37
2023-02-08T02:17:01.657Z,5.20
2023-02-08T02:19:41.406Z,5.13
2023-02-08T02:22:40.734Z,5.30
2023-02-08T02:25:47.779Z,5.50
2023-02-08T02:29:06.187Z,5.20
2023-02-08T02:32:00.426Z,5.53
2023-02-08T02:34:41.862Z,5.37
2023-02-08T02:37:24.743Z,5.53
2023-02-08T02:40:08.361Z,4.97
2023-02-08T02:43:15.027Z,5.33
2023-02-08T02:45:50.687Z,5.07
2023-02-08T02:48:31.785Z,4.80
2023-02-08T02:51:07.054Z,5.10
2023-02-08T02:53:44.323Z,5.47
2023-02-08T02:56:17.786Z,4.57
2023-02-08T02:58:46.729Z,3.93
2023-02-08T03:01:15.137Z,5.23
2023-02-08T03:03:44.523Z,3.83
2023-02-08T03:06:23.479Z,4.93
2023-02-08T03:09:09.544Z,4.80
2023-02-08T03:11:46.805Z,3.77
2023-02-08T03:14:31.121Z,4.50
2023-02-08T03:17:17.826Z,4.03
2023-02-08T03:19:55.749Z,4.73
2023-02-08T03:22:32.394Z,4.97
2023-02-08T03:25:07.154Z,4.60
2023-02-08T03:27:41.367Z,4.37
2023-02-08T03:30:16.954Z,4.37
2023-02-08T03:32:48.926Z,4.47
2023-02-08T03:35:24.105Z,4.43
2023-02-08T03:37:59.465Z,3.80
2023-02-08T03:40:32.931Z,4.90
2023-02-08T03:43:08.824Z,3.63
2023-02-08T03:45:43.052Z,4.63
2023-02-08T03:48:15.363Z,4.37
2023-02-08T03:50:50.217Z,4.40
2023-02-08T03:53:22.265Z,4.47
2023-02-08T03:55:55.902Z,4.33
2023-02-08T03:58:30.190Z,6.57
2023-02-08T04:01:04.897Z,4.43
2023-02-08T04:03:34.957Z,4.43
2023-02-08T04:06:04.693Z,4.90
2023-02-08T04:08:33.029Z,4.77
2023-02-08T04:11:01.226Z,4.80
2023-02-08T04:13:29.274Z,4.83
2023-02-08T04:15:57.806Z,5.23
2023-02-08T04:18:25.798Z,4.87
2023-02-08T04:20:53.856Z,5.23
2023-02-08T04:23:23.240Z,4.93
2023-02-08T04:25:51.344Z,4.10
2023-02-08T04:28:19.861Z,4.57
2023-02-08T04:30:48.128Z,4.90
2023-02-08T04:33:16.543Z,5.40
2023-02-08T04:35:44.936Z,4.70
2023-02-08T04:38:12.906Z,4.80
2023-02-08T04:40:42.542Z,4.40
2023-02-08T04:43:10.668Z,6.23
2023-02-08T04:45:38.767Z,6.93
2023-02-08T04:48:07.376Z,7.13
2023-02-08T04:50:36.061Z,4.70
2023-02-08T04:53:04.483Z,4.37
2023-02-08T04:55:32.585Z,4.90
2023-02-08T04:58:02.055Z,4.77
2023-02-08T05:00:30.242Z,4.57
2023-02-08T05:02:59.922Z,4.70
2023-02-08T05:05:28.505Z,4.70
2023-02-08T05:07:56.642Z,15.67
2023-02-08T05:10:24.891Z,12.10
2023-02-08T05:12:53.082Z,8.83
2023-02-08T05:15:22.869Z,7.47
2023-02-08T05:17:52.038Z,6.83
2023-02-08T05:20:21.504Z,8.50
2023-02-08T05:22:49.544Z,8.30
2023-02-08T05:25:18.038Z,8.23
2023-02-08T05:27:46.170Z,6.83
2023-02-08T05:30:14.740Z,6.23
2023-02-08T05:32:44.147Z,5.67
2023-02-08T05:35:12.156Z,10.40
2023-02-08T05:37:40.175Z,15.50
2023-02-08T05:40:10.414Z,10.17
2023-02-08T05:42:38.577Z,6.83
2023-02-08T05:45:07.721Z,6.53
2023-02-08T05:47:35.730Z,7.00
2023-02-08T05:50:06.390Z,6.23
2023-02-08T05:52:34.481Z,6.80
2023-02-08T05:55:02.519Z,6.10
2023-02-08T05:57:31.928Z,7.40
2023-02-08T06:00:00.752Z,5.10
2023-02-08T06:02:28.794Z,5.70
2023-02-08T06:04:56.936Z,5.07
2023-02-08T06:07:26.448Z,4.77
2023-02-08T06:09:54.524Z,5.90
2023-02-08T06:12:22.515Z,5.43
2023-02-08T06:14:50.505Z,6.33
2023-02-08T06:17:18.493Z,5.57
2023-02-08T06:19:46.522Z,4.50
2023-02-08T06:22:14.617Z,5.73
2023-02-08T06:24:44.014Z,4.23
2023-02-08T06:27:12.063Z,5.10
2023-02-08T06:29:40.129Z,6.57
2023-02-08T06:32:08.257Z,5.13
2023-02-08T06:34:36.313Z,5.07
2023-02-08T06:37:05.673Z,5.13
2023-02-08T06:39:34.081Z,5.17
2023-02-08T06:42:03.604Z,5.23
2023-02-08T06:44:31.942Z,5.73
2023-02-08T06:47:00.064Z,5.07
2023-02-08T06:49:28.284Z,5.07
2023-02-08T06:51:56.564Z,5.30
2023-02-08T06:54:24.612Z,6.13
2023-02-08T06:56:54.517Z,5.53
2023-02-08T06:59:24.080Z,5.33
2023-02-08T07:01:52.063Z,5.90
2023-02-08T07:04:20.034Z,5.37
2023-02-08T07:06:49.860Z,5.80
2023-02-08T07:09:18.842Z,5.50
2023-02-08T07:11:46.944Z,6.20
2023-02-08T07:14:16.146Z,5.93
2023-02-08T07:16:45.642Z,5.13
2023-02-08T07:19:13.869Z,6.03
2023-02-08T07:21:41.870Z,5.70
2023-02-08T07:24:10.065Z,5.53
2023-02-08T07:26:38.140Z,6.00
2023-02-08T07:29:06.584Z,5.57
2023-02-08T07:31:34.682Z,7.23
2023-02-08T07:34:04.195Z,7.40
2023-02-08T07:36:32.225Z,6.40
2023-02-08T07:39:00.197Z,6.57
2023-02-08T07:41:28.176Z,5.93
2023-02-08T07:43:56.239Z,6.60
2023-02-08T07:46:24.385Z,6.67
2023-02-08T07:48:53.504Z,7.23
2023-02-08T07:51:23.195Z,6.90
2023-02-08T07:53:51.845Z,6.40
2023-02-08T07:56:20.315Z,7.20
2023-02-08T07:58:48.333Z,6.93
2023-02-08T08:01:22.207Z,8.37
2023-02-08T08:03:51.322Z,6.10
2023-02-08T08:06:20.033Z,6.13
2023-02-08T08:08:49.898Z,7.30
2023-02-08T08:11:20.007Z,5.67
2023-02-08T08:13:48.384Z,6.47
2023-02-08T08:16:16.738Z,7.77
2023-02-08T08:18:44.879Z,6.47
2023-02-08T08:21:13.763Z,6.47
2023-02-08T08:23:41.879Z,6.60
2023-02-08T08:26:15.064Z,6.20
2023-02-08T08:28:43.788Z,5.60
2023-02-08T08:31:13.028Z,6.97
2023-02-08T08:33:41.268Z,5.57
2023-02-08T08:36:10.335Z,5.93
2023-02-08T08:38:38.826Z,6.10
2023-02-08T08:41:11.925Z,6.27
2023-02-08T08:43:40.082Z,6.93
2023-02-08T08:46:09.025Z,6.77
2023-02-08T08:48:39.376Z,6.00
2023-02-08T08:51:08.656Z,6.07
2023-02-08T08:53:37.068Z,6.13
2023-02-08T08:56:06.419Z,5.50
2023-02-08T08:58:35.878Z,6.27
2023-02-08T09:01:04.154Z,6.20
2023-02-08T09:03:32.219Z,6.73
2023-02-08T09:06:00.244Z,6.70
2023-02-08T09:08:29.211Z,5.67
2023-02-08T09:10:57.263Z,6.40
2023-02-08T09:13:25.567Z,5.90
2023-02-08T09:15:55.092Z,5.47
2023-02-08T09:18:23.121Z,6.43
2023-02-08T09:20:51.149Z,6.30
2023-02-08T09:23:19.207Z,6.10
2023-02-08T09:25:49.112Z,6.13
2023-02-08T09:28:18.190Z,6.50
2023-02-08T09:30:49.916Z,6.33
2023-02-08T09:33:19.328Z,6.53
2023-02-08T09:35:49.534Z,6.07
2023-02-08T09:38:17.608Z,6.07
2023-02-08T09:41:03.108Z,5.73
2023-02-08T09:43:43.338Z,6.50
2023-02-08T09:46:17.606Z,5.20
2023-02-08T09:48:49.127Z,5.70
2023-02-08T09:51:29.038Z,6.20
2023-02-08T09:54:04.644Z,5.87
2023-02-08T09:56:40.166Z,6.47
2023-02-08T09:59:17.701Z,5.93
2023-02-08T10:01:47.361Z,6.20
2023-02-08T10:04:26.459Z,5.97
2023-02-08T10:06:54.700Z,5.63
2023-02-08T10:09:27.875Z,5.40
2023-02-08T10:12:12.253Z,5.37
2023-02-08T10:15:00.980Z,5.03
2023-02-08T10:17:53.202Z,5.63
2023-02-08T10:20:39.064Z,5.53
2023-02-08T10:23:28.728Z,5.87
2023-02-08T10:26:11.051Z,6.03
2023-02-08T10:28:58.721Z,6.17
2023-02-08T10:31:43.106Z,6.37
2023-02-08T10:34:21.313Z,6.30
2023-02-08T10:36:50.823Z,4.93
2023-02-08T10:39:25.234Z,6.27
2023-02-08T10:41:54.002Z,6.03
2023-02-08T10:44:30.930Z,5.73
2023-02-08T10:47:14.173Z,5.87
2023-02-08T10:49:51.483Z,6.03
2023-02-08T10:52:21.111Z,6.07
2023-02-08T10:54:49.154Z,6.17
2023-02-08T10:57:23.661Z,5.73
2023-02-08T10:59:55.768Z,6.53
2023-02-08T11:02:26.750Z,6.10
2023-02-08T11:05:04.184Z,6.77
2023-02-08T11:07:36.512Z,5.87
2023-02-08T11:10:26.431Z,6.60
2023-02-08T11:13:00.577Z,6.33
2023-02-08T11:15:34.956Z,6.63
2023-02-08T11:18:05.089Z,6.20
2023-02-08T11:20:37.768Z,6.20
2023-02-08T11:23:23.392Z,6.67
2023-02-08T11:25:52.378Z,6.73
2023-02-08T11:28:31.460Z,6.67
2023-02-08T11:31:03.226Z,5.53
2023-02-08T11:33:31.708Z,6.90
2023-02-08T11:36:07.445Z,6.13
2023-02-08T11:38:42.334Z,6.47
2023-02-08T11:41:18.948Z,6.40
2023-02-08T11:44:00.474Z,4.93
2023-02-08T11:46:30.764Z,6.43
2023-02-08T11:48:58.932Z,5.83
2023-02-08T11:51:32.037Z,5.60
2023-02-08T11:54:02.345Z,5.20
2023-02-08T11:56:33.303Z,5.03
2023-02-08T11:59:18.221Z,5.70
2023-02-08T12:01:46.632Z,5.60
2023-02-08T12:04:17.964Z,5.50
2023-02-08T12:07:22.013Z,4.83
2023-02-08T12:10:29.131Z,5.90
2023-02-08T12:13:18.235Z,5.00
2023-02-08T12:16:01.828Z,5.80
2023-02-08T12:19:06.600Z,5.27
2023-02-08T12:21:43.083Z,6.07
2023-02-08T12:24:20.924Z,5.70
2023-02-08T12:27:16.974Z,5.57
2023-02-08T12:29:52.794Z,5.47
2023-02-08T12:32:38.627Z,5.77
2023-02-08T12:35:45.579Z,6.33
2023-02-08T12:38:49.625Z,5.43
2023-02-08T12:41:26.561Z,5.37
2023-02-08T12:44:07.992Z,5.80
2023-02-08T12:46:52.868Z,5.33
2023-02-08T12:49:58.573Z,5.10
2023-02-08T12:52:38.025Z,5.47
2023-02-08T12:55:19.346Z,4.57
2023-02-08T12:57:53.943Z,5.93
2023-02-08T13:00:29.129Z,5.30
2023-02-08T13:03:06.978Z,7.37
2023-02-08T13:05:42.900Z,7.57
2023-02-08T13:08:33.117Z,5.70
2023-02-08T13:11:19.029Z,5.00
2023-02-08T13:13:57.939Z,4.70
2023-02-08T13:16:34.686Z,4.23
2023-02-08T13:19:22.867Z,4.63
2023-02-08T13:21:54.106Z,3.90
2023-02-08T13:24:34.171Z,4.10
2023-02-08T13:27:02.350Z,4.20
2023-02-08T13:29:33.125Z,4.27
2023-02-08T13:32:09.175Z,3.93
2023-02-08T13:34:42.109Z,3.53
2023-02-08T13:37:25.729Z,3.60
2023-02-08T13:40:03.238Z,3.80
2023-02-08T13:42:39.579Z,3.40
2023-02-08T13:45:10.737Z,4.00
2023-02-08T13:47:47.047Z,4.10
2023-02-08T13:50:50.608Z,5.97
2023-02-08T13:53:39.982Z,3.67
2023-02-08T13:56:11.667Z,3.13
2023-02-08T13:59:01.244Z,3.40
2023-02-08T14:01:30.608Z,4.40
2023-02-08T14:04:36.347Z,3.47
2023-02-08T14:07:20.783Z,5.33
2023-02-08T14:10:10.069Z,4.30
2023-02-08T14:12:46.864Z,4.60
2023-02-08T14:15:43.404Z,4.43
2023-02-08T14:18:26.595Z,3.60
2023-02-08T14:21:04.482Z,3.60
2023-02-08T14:23:40.225Z,3.67
2023-02-08T14:26:20.682Z,4.20
2023-02-08T14:28:55.393Z,3.40
2023-02-08T14:31:24.060Z,3.43
2023-02-08T14:33:55.996Z,3.60
2023-02-08T14:36:30.964Z,3.70
2023-02-08T14:39:28.965Z,3.50
2023-02-08T14:42:01.509Z,4.07
2023-02-08T14:45:06.143Z,4.17
2023-02-08T14:48:21.013Z,4.00
2023-02-08T14:51:00.203Z,3.20
2023-02-08T14:53:41.299Z,3.93
2023-02-08T14:56:20.441Z,4.00
2023-02-08T14:59:16.904Z,3.43
2023-02-08T15:01:48.587Z,3.23
2023-02-08T15:04:19.096Z,3.50
2023-02-08T15:07:20.756Z,3.83
2023-02-08T15:09:50.380Z,4.10
2023-02-08T15:12:27.563Z,3.90
2023-02-08T15:14:59.108Z,3.70
2023-02-08T15:17:35.234Z,3.90
2023-02-08T15:20:18.050Z,3.80
2023-02-08T15:22:46.471Z,4.13
2023-02-08T15:25:29.901Z,4.30
2023-02-08T15:28:00.642Z,3.90
2023-02-08T15:30:35.544Z,4.60
2023-02-08T15:33:13.682Z,3.80
2023-02-08T15:35:44.440Z,3.97
2023-02-08T15:38:19.832Z,4.33
2023-02-08T15:41:07.243Z,4.20
2023-02-08T15:43:36.781Z,6.93
2023-02-08T15:46:07.745Z,6.13
2023-02-08T15:48:39.550Z,4.50
2023-02-08T15:51:11.358Z,4.37
2023-02-08T15:53:42.785Z,4.90
2023-02-08T15:56:30.435Z,4.47
2023-02-08T15:59:05.335Z,4.33
2023-02-08T16:01:34.395Z,5.10
2023-02-08T16:04:08.315Z,4.57
2023-02-08T16:06:45.882Z,4.60
2023-02-08T16:09:19.951Z,5.00
2023-02-08T16:11:51.064Z,4.43
2023-02-08T16:14:27.873Z,3.63
2023-02-08T16:16:59.420Z,4.43
2023-02-08T16:19:29.909Z,4.63
2023-02-08T16:22:26.798Z,8.17
2023-02-08T16:24:55.863Z,5.10
2023-02-08T16:27:28.313Z,8.80
2023-02-08T16:29:56.703Z,9.17
2023-02-08T16:32:30.066Z,8.50
2023-02-08T16:34:58.403Z,5.60
2023-02-08T16:37:31.001Z,5.73
2023-02-08T16:40:03.392Z,5.97
2023-02-08T16:42:35.759Z,6.20
2023-02-08T16:45:24.788Z,6.60
2023-02-08T16:47:56.741Z,5.63
2023-02-08T16:50:27.236Z,7.07
2023-02-08T16:53:01.353Z,8.27
2023-02-08T16:55:33.796Z,6.43
2023-02-08T16:58:02.084Z,7.07
2023-02-08T17:00:32.913Z,6.80
2023-02-08T17:03:01.365Z,7.40
2023-02-08T17:05:32.427Z,7.40
2023-02-08T17:08:04.081Z,7.23
2023-02-08T17:10:34.016Z,7.60
2023-02-08T17:13:19.306Z,7.37
2023-02-08T17:15:50.414Z,8.27
2023-02-08T17:18:19.108Z,9.63
2023-02-08T17:20:48.344Z,12.60
2023-02-08T17:23:18.142Z,11.73
2023-02-08T17:25:46.659Z,11.80
2023-02-08T17:28:19.518Z,13.93
2023-02-08T17:30:50.069Z,12.60
2023-02-08T17:33:20.886Z,11.70
2023-02-08T17:35:51.017Z,11.27
2023-02-08T17:38:21.904Z,9.23
2023-02-08T17:40:50.028Z,7.97
2023-02-08T17:43:18.976Z,8.97
2023-02-08T17:45:47.466Z,11.00
2023-02-08T17:48:15.881Z,10.13
2023-02-08T17:50:50.760Z,9.83
2023-02-08T17:53:21.034Z,11.07
2023-02-08T17:55:49.778Z,7.60
2023-02-08T17:58:18.350Z,8.30
2023-02-08T18:00:47.111Z,7.30
2023-02-08T18:03:17.230Z,8.13
2023-02-08T18:05:45.993Z,7.70
2023-02-08T18:08:14.635Z,7.87
2023-02-08T18:10:44.497Z,8.33
2023-02-08T18:13:13.357Z,8.80
2023-02-08T18:15:42.355Z,8.77
2023-02-08T18:18:10.849Z,8.53
2023-02-08T18:20:43.363Z,7.77
2023-02-08T18:23:11.376Z,7.70
2023-02-08T18:25:40.979Z,7.60
2023-02-08T18:28:14.569Z,7.43
2023-02-08T18:30:43.919Z,7.90
2023-02-08T18:33:13.760Z,7.93
2023-02-08T18:35:42.711Z,6.93
2023-02-08T18:38:11.242Z,8.00
2023-02-08T18:40:41.571Z,9.17
2023-02-08T18:43:11.649Z,7.10
2023-02-08T18:45:40.039Z,7.00
2023-02-08T18:48:08.302Z,8.03
2023-02-08T18:50:37.167Z,7.60
2023-02-08T18:53:06.806Z,7.53
2023-02-08T18:55:35.199Z,8.03
2023-02-08T18:58:04.327Z,8.03
2023-02-08T19:00:34.097Z,7.40
2023-02-08T19:03:09.776Z,7.07
2023-02-08T19:05:39.018Z,8.17
2023-02-08T19:08:11.363Z,8.33
2023-02-08T19:10:41.204Z,8.50
2023-02-08T19:13:09.680Z,8.27
2023-02-08T19:15:43.293Z,8.87
2023-02-08T19:18:11.761Z,9.77
2023-02-08T19:20:40.207Z,8.30
2023-02-08T19:23:08.667Z,8.17
2023-02-08T19:25:39.691Z,7.73
2023-02-08T19:28:08.688Z,7.60
2023-02-08T19:30:37.218Z,7.73
2023-02-08T19:33:06.879Z,8.00
2023-02-08T19:35:39.179Z,8.27
2023-02-08T19:38:09.145Z,8.07
2023-02-08T19:40:37.495Z,7.83
2023-02-08T19:43:05.773Z,8.80
2023-02-08T19:45:36.222Z,7.53
2023-02-08T19:48:06.843Z,9.27
2023-02-08T19:50:35.987Z,9.10
2023-02-08T19:53:04.429Z,7.73
2023-02-08T19:55:32.781Z,8.83
2023-02-08T19:58:01.046Z,8.57
2023-02-08T20:00:29.340Z,8.60
2023-02-08T20:02:57.585Z,8.93
2023-02-08T20:05:27.293Z,8.17
2023-02-08T20:07:55.789Z,8.27
2023-02-08T20:10:24.084Z,7.73
2023-02-08T20:12:53.361Z,7.67
2023-02-08T20:15:21.794Z,8.13
2023-02-08T20:17:50.110Z,8.43
2023-02-08T20:20:19.660Z,8.03
2023-02-08T20:22:49.014Z,8.27
2023-02-08T20:25:17.405Z,8.23
2023-02-08T20:27:45.661Z,9.17
2023-02-08T20:30:17.192Z,8.53
2023-02-08T20:32:47.149Z,8.57
2023-02-08T20:35:15.743Z,8.63
2023-02-08T20:37:44.698Z,9.83
2023-02-08T20:40:16.028Z,11.80
2023-02-08T20:42:44.658Z,12.50
2023-02-08T20:45:14.530Z,13.20
2023-02-08T20:47:46.762Z,10.67
2023-02-08T20:50:19.080Z,9.10
2023-02-08T20:52:48.917Z,9.83
2023-02-08T20:55:18.637Z,9.23
2023-02-08T20:57:46.655Z,9.80
2023-02-08T21:00:16.170Z,8.63
2023-02-08T21:02:44.378Z,9.07
2023-02-08T21:05:12.393Z,9.00
2023-02-08T21:07:41.023Z,8.73
2023-02-08T21:10:09.845Z,8.30
2023-02-08T21:12:39.407Z,9.23
2023-02-08T21:15:10.324Z,9.83
2023-02-08T21:17:40.842Z,9.67
2023-02-08T21:20:11.957Z,8.60
2023-02-08T21:22:40.072Z,9.73
2023-02-08T21:25:09.333Z,9.10
2023-02-08T21:27:39.080Z,8.73
2023-02-08T21:30:10.049Z,8.80
2023-02-08T21:32:38.268Z,9.07
2023-02-08T21:35:07.581Z,9.07
2023-02-08T21:37:35.951Z,8.60
2023-02-08T21:40:04.372Z,9.20
2023-02-08T21:42:33.859Z,10.27
2023-02-08T21:45:03.411Z,10.67
2023-02-08T21:47:31.592Z,9.60
2023-02-08T21:50:17.257Z,10.20
2023-02-08T21:53:02.856Z,9.73
2023-02-08T21:55:31.926Z,10.50
2023-02-08T21:58:00.333Z,10.53
2023-02-08T22:00:30.318Z,10.37
2023-02-08T22:02:58.557Z,9.70
2023-02-08T22:05:44.447Z,9.07
2023-02-08T22:08:14.277Z,9.87
2023-02-08T22:10:50.182Z,9.07
2023-02-08T22:13:24.994Z,8.00
2023-02-08T22:15:54.760Z,8.53
2023-02-08T22:18:23.055Z,8.63
2023-02-08T22:20:52.735Z,8.43
2023-02-08T22:23:21.275Z,7.90
2023-02-08T22:25:49.495Z,9.00
2023-02-08T22:28:17.768Z,8.87
2023-02-08T22:30:49.227Z,8.90
2023-02-08T22:33:18.930Z,9.03
2023-02-08T22:35:47.110Z,7.43
2023-02-08T22:38:15.276Z,8.90
2023-02-08T22:40:43.909Z,8.17
2023-02-08T22:43:12.367Z,8.53
2023-02-08T22:45:42.368Z,8.57
2023-02-08T22:48:10.943Z,7.80
2023-02-08T22:50:40.529Z,7.73
2023-02-08T22:53:08.771Z,7.87
2023-02-08T22:55:36.994Z,8.90
2023-02-08T22:58:05.232Z,8.30
2023-02-08T23:00:33.544Z,8.67
2023-02-08T23:03:01.888Z,7.73
2023-02-08T23:05:30.128Z,8.07
2023-02-08T23:07:59.696Z,7.57
2023-02-08T23:10:27.946Z,7.50
2023-02-08T23:12:56.197Z,7.93
2023-02-08T23:15:24.498Z,7.00
2023-02-08T23:17:52.961Z,7.77
2023-02-08T23:20:21.373Z,8.03
2023-02-08T23:22:49.594Z,7.77
2023-02-08T23:25:20.039Z,7.53
2023-02-08T23:27:48.720Z,7.57
2023-02-08T23:30:17.244Z,8.17
2023-02-08T23:32:45.564Z,7.50
2023-02-08T23:35:13.844Z,7.10
2023-02-08T23:37:42.143Z,8.33
2023-02-08T23:40:12.044Z,7.23
2023-02-08T23:42:41.728Z,6.67
2023-02-08T23:45:11.242Z,7.20
2023-02-08T23:47:40.349Z,6.93
2023-02-08T23:50:11.093Z,7.47
2023-02-08T23:52:39.427Z,6.93
2023-02-08T23:55:10.016Z,7.13
2023-02-08T23:57:39.439Z,8.03
